sensor_id;sensor_type;location;lat;lon;timestamp;P1;durP1;ratioP1;P2;durP2;ratioP2
8986;SDS011;4529;51.360;12.474;2023-06-10T00:01:57;6.03;;;3.77;;
8986;SDS011;4529;51.360;12.474;2023-06-10T00:07:02;5.40;;;3.93;;
8986;SDS011;4529;51.360;12.474;2023-06-10T00:12:08;4.60;;;3.73;;
8986;SDS011;4529;51.360;12.474;2023-06-10T00:17:11;5.63;;;3.90;;
8986;SDS011;4529;51.360;12.474;2023-06-10T00:22:15;4.53;;;3.70;;
8986;SDS011;4529;51.360;12.474;2023-06-10T00:27:18;4.97;;;3.77;;
8986;SDS011;4529;51.360;12.474;2023-06-10T00:32:22;6.07;;;4.00;;
8986;SDS011;4529;51.360;12.474;2023-06-10T00:37:25;5.23;;;3.83;;
8986;SDS011;4529;51.360;12.474;2023-06-10T00:42:29;4.67;;;3.73;;
8986;SDS011;4529;51.360;12.474;2023-06-10T00:47:32;4.77;;;3.77;;
8986;SDS011;4529;51.360;12.474;2023-06-10T00:52:35;6.73;;;3.83;;
8986;SDS011;4529;51.360;12.474;2023-06-10T00:57:39;4.73;;;3.80;;
8986;SDS011;4529;51.360;12.474;2023-06-10T01:02:42;6.43;;;3.90;;
8986;SDS011;4529;51.360;12.474;2023-06-10T01:12:52;5.40;;;4.20;;
8986;SDS011;4529;51.360;12.474;2023-06-10T01:17:59;9.57;;;4.30;;
8986;SDS011;4529;51.360;12.474;2023-06-10T01:23:02;6.93;;;4.27;;
8986;SDS011;4529;51.360;12.474;2023-06-10T01:28:17;5.00;;;4.30;;
8986;SDS011;4529;51.360;12.474;2023-06-10T01:33:25;6.97;;;4.60;;
8986;SDS011;4529;51.360;12.474;2023-06-10T01:38:30;5.57;;;4.53;;
8986;SDS011;4529;51.360;12.474;2023-06-10T01:43:37;6.33;;;4.30;;
8986;SDS011;4529;51.360;12.474;2023-06-10T01:48:42;6.40;;;4.40;;
8986;SDS011;4529;51.360;12.474;2023-06-10T01:53:45;6.07;;;4.60;;
8986;SDS011;4529;51.360;12.474;2023-06-10T01:58:49;8.13;;;4.50;;
8986;SDS011;4529;51.360;12.474;2023-06-10T02:03:52;5.20;;;4.70;;
8986;SDS011;4529;51.360;12.474;2023-06-10T02:08:56;5.90;;;5.30;;
8986;SDS011;4529;51.360;12.474;2023-06-10T02:13:59;7.33;;;5.70;;
8986;SDS011;4529;51.360;12.474;2023-06-10T02:19:04;8.33;;;5.90;;
8986;SDS011;4529;51.360;12.474;2023-06-10T02:24:07;6.67;;;5.63;;
8986;SDS011;4529;51.360;12.474;2023-06-10T02:29:10;7.27;;;5.63;;
8986;SDS011;4529;51.360;12.474;2023-06-10T02:34:14;8.97;;;6.20;;
8986;SDS011;4529;51.360;12.474;2023-06-10T02:39:17;11.23;;;6.33;;
8986;SDS011;4529;51.360;12.474;2023-06-10T02:44:21;8.63;;;6.00;;
8986;SDS011;4529;51.360;12.474;2023-06-10T02:49:24;7.40;;;6.20;;
8986;SDS011;4529;51.360;12.474;2023-06-10T02:54:28;9.27;;;6.10;;
8986;SDS011;4529;51.360;12.474;2023-06-10T02:59:31;10.97;;;6.40;;
8986;SDS011;4529;51.360;12.474;2023-06-10T03:04:35;10.17;;;5.77;;
8986;SDS011;4529;51.360;12.474;2023-06-10T03:09:38;7.23;;;6.20;;
8986;SDS011;4529;51.360;12.474;2023-06-10T03:14:42;8.17;;;6.10;;
8986;SDS011;4529;51.360;12.474;2023-06-10T03:19:45;8.47;;;6.27;;
8986;SDS011;4529;51.360;12.474;2023-06-10T03:24:49;8.27;;;6.17;;
8986;SDS011;4529;51.360;12.474;2023-06-10T03:29:52;6.73;;;5.20;;
8986;SDS011;4529;51.360;12.474;2023-06-10T03:34:56;6.53;;;4.97;;
8986;SDS011;4529;51.360;12.474;2023-06-10T03:39:59;7.47;;;5.07;;
8986;SDS011;4529;51.360;12.474;2023-06-10T03:45:03;6.50;;;5.43;;
8986;SDS011;4529;51.360;12.474;2023-06-10T03:50:07;8.40;;;5.63;;
8986;SDS011;4529;51.360;12.474;2023-06-10T03:55:10;6.97;;;5.73;;
8986;SDS011;4529;51.360;12.474;2023-06-10T04:00:13;7.03;;;5.70;;
8986;SDS011;4529;51.360;12.474;2023-06-10T04:05:18;7.43;;;4.80;;
8986;SDS011;4529;51.360;12.474;2023-06-10T04:10:21;7.00;;;4.27;;
8986;SDS011;4529;51.360;12.474;2023-06-10T04:15:26;5.33;;;4.70;;
8986;SDS011;4529;51.360;12.474;2023-06-10T04:20:30;7.33;;;4.50;;
8986;SDS011;4529;51.360;12.474;2023-06-10T04:25:34;7.13;;;4.77;;
8986;SDS011;4529;51.360;12.474;2023-06-10T04:30:38;5.20;;;4.30;;
8986;SDS011;4529;51.360;12.474;2023-06-10T04:35:42;6.40;;;5.17;;
8986;SDS011;4529;51.360;12.474;2023-06-10T04:40:46;6.33;;;5.33;;
8986;SDS011;4529;51.360;12.474;2023-06-10T04:45:49;8.37;;;5.53;;
8986;SDS011;4529;51.360;12.474;2023-06-10T04:50:53;7.47;;;5.50;;
8986;SDS011;4529;51.360;12.474;2023-06-10T04:55:56;7.97;;;5.73;;
8986;SDS011;4529;51.360;12.474;2023-06-10T05:00:59;8.20;;;5.63;;
8986;SDS011;4529;51.360;12.474;2023-06-10T05:06:03;6.87;;;5.50;;
8986;SDS011;4529;51.360;12.474;2023-06-10T05:11:06;8.93;;;5.60;;
8986;SDS011;4529;51.360;12.474;2023-06-10T05:16:10;8.37;;;5.67;;
8986;SDS011;4529;51.360;12.474;2023-06-10T05:21:13;7.57;;;5.90;;
8986;SDS011;4529;51.360;12.474;2023-06-10T05:26:17;7.03;;;5.93;;
8986;SDS011;4529;51.360;12.474;2023-06-10T05:31:20;7.80;;;5.87;;
8986;SDS011;4529;51.360;12.474;2023-06-10T05:36:24;7.30;;;5.90;;
8986;SDS011;4529;51.360;12.474;2023-06-10T05:41:27;9.00;;;6.10;;
8986;SDS011;4529;51.360;12.474;2023-06-10T05:46:31;7.57;;;5.70;;
8986;SDS011;4529;51.360;12.474;2023-06-10T05:51:34;7.43;;;5.93;;
8986;SDS011;4529;51.360;12.474;2023-06-10T05:56:38;11.27;;;6.00;;
8986;SDS011;4529;51.360;12.474;2023-06-10T06:01:41;7.10;;;6.33;;
8986;SDS011;4529;51.360;12.474;2023-06-10T06:06:44;8.70;;;5.90;;
8986;SDS011;4529;51.360;12.474;2023-06-10T06:11:48;7.77;;;6.30;;
8986;SDS011;4529;51.360;12.474;2023-06-10T06:16:51;8.50;;;6.13;;
8986;SDS011;4529;51.360;12.474;2023-06-10T06:21:55;8.77;;;6.20;;
8986;SDS011;4529;51.360;12.474;2023-06-10T06:26:58;10.60;;;6.17;;
8986;SDS011;4529;51.360;12.474;2023-06-10T06:32:02;8.50;;;6.10;;
8986;SDS011;4529;51.360;12.474;2023-06-10T06:37:05;7.87;;;6.10;;
8986;SDS011;4529;51.360;12.474;2023-06-10T06:42:09;7.70;;;6.50;;
8986;SDS011;4529;51.360;12.474;2023-06-10T06:47:12;7.27;;;6.20;;
8986;SDS011;4529;51.360;12.474;2023-06-10T06:52:16;8.87;;;6.97;;
8986;SDS011;4529;51.360;12.474;2023-06-10T06:57:19;7.27;;;6.50;;
8986;SDS011;4529;51.360;12.474;2023-06-10T07:02:23;9.77;;;7.10;;
8986;SDS011;4529;51.360;12.474;2023-06-10T07:07:26;9.03;;;6.80;;
8986;SDS011;4529;51.360;12.474;2023-06-10T07:12:30;8.63;;;6.70;;
8986;SDS011;4529;51.360;12.474;2023-06-10T07:17:33;10.23;;;6.87;;
8986;SDS011;4529;51.360;12.474;2023-06-10T07:22:36;11.10;;;6.93;;
8986;SDS011;4529;51.360;12.474;2023-06-10T07:27:40;12.40;;;7.00;;
8986;SDS011;4529;51.360;12.474;2023-06-10T07:32:43;7.93;;;6.63;;
8986;SDS011;4529;51.360;12.474;2023-06-10T07:37:47;8.37;;;6.70;;
8986;SDS011;4529;51.360;12.474;2023-06-10T07:42:50;8.30;;;6.53;;
8986;SDS011;4529;51.360;12.474;2023-06-10T07:47:54;10.00;;;6.77;;
8986;SDS011;4529;51.360;12.474;2023-06-10T07:52:57;9.63;;;6.50;;
8986;SDS011;4529;51.360;12.474;2023-06-10T07:58:01;7.47;;;6.67;;
8986;SDS011;4529;51.360;12.474;2023-06-10T08:03:04;7.63;;;6.77;;
8986;SDS011;4529;51.360;12.474;2023-06-10T08:08:08;7.53;;;6.70;;
8986;SDS011;4529;51.360;12.474;2023-06-10T08:13:11;10.70;;;7.17;;
8986;SDS011;4529;51.360;12.474;2023-06-10T08:18:16;7.40;;;6.67;;
8986;SDS011;4529;51.360;12.474;2023-06-10T08:23:20;11.40;;;7.10;;
8986;SDS011;4529;51.360;12.474;2023-06-10T08:28:23;9.03;;;7.00;;
8986;SDS011;4529;51.360;12.474;2023-06-10T08:33:27;8.93;;;7.20;;
8986;SDS011;4529;51.360;12.474;2023-06-10T08:38:30;8.23;;;7.37;;
8986;SDS011;4529;51.360;12.474;2023-06-10T08:43:36;9.33;;;7.17;;
8986;SDS011;4529;51.360;12.474;2023-06-10T08:48:42;7.97;;;7.00;;
8986;SDS011;4529;51.360;12.474;2023-06-10T08:53:48;8.63;;;7.40;;
8986;SDS011;4529;51.360;12.474;2023-06-10T08:58:55;7.90;;;7.10;;
8986;SDS011;4529;51.360;12.474;2023-06-10T09:03:59;8.70;;;7.27;;
8986;SDS011;4529;51.360;12.474;2023-06-10T09:09:05;9.27;;;7.60;;
8986;SDS011;4529;51.360;12.474;2023-06-10T09:14:08;8.47;;;7.60;;
8986;SDS011;4529;51.360;12.474;2023-06-10T09:19:12;8.87;;;7.50;;
8986;SDS011;4529;51.360;12.474;2023-06-10T09:24:16;10.27;;;7.70;;
8986;SDS011;4529;51.360;12.474;2023-06-10T09:29:20;8.53;;;7.27;;
8986;SDS011;4529;51.360;12.474;2023-06-10T09:34:25;8.90;;;7.17;;
8986;SDS011;4529;51.360;12.474;2023-06-10T09:39:27;7.83;;;7.03;;
8986;SDS011;4529;51.360;12.474;2023-06-10T09:44:30;8.27;;;7.47;;
8986;SDS011;4529;51.360;12.474;2023-06-10T09:49:34;9.07;;;7.30;;
8986;SDS011;4529;51.360;12.474;2023-06-10T09:54:37;12.13;;;8.00;;
8986;SDS011;4529;51.360;12.474;2023-06-10T09:59:41;9.20;;;7.93;;
8986;SDS011;4529;51.360;12.474;2023-06-10T10:04:44;9.73;;;8.37;;
8986;SDS011;4529;51.360;12.474;2023-06-10T10:09:48;8.67;;;7.80;;
8986;SDS011;4529;51.360;12.474;2023-06-10T10:14:51;8.60;;;7.70;;
8986;SDS011;4529;51.360;12.474;2023-06-10T10:19:57;9.00;;;8.13;;
8986;SDS011;4529;51.360;12.474;2023-06-10T10:24:59;9.33;;;8.10;;
8986;SDS011;4529;51.360;12.474;2023-06-10T10:30:02;8.63;;;7.60;;
8986;SDS011;4529;51.360;12.474;2023-06-10T10:40:12;12.17;;;8.57;;
8986;SDS011;4529;51.360;12.474;2023-06-10T10:45:15;8.63;;;7.70;;
8986;SDS011;4529;51.360;12.474;2023-06-10T10:50:19;8.77;;;7.87;;
8986;SDS011;4529;51.360;12.474;2023-06-10T10:55:23;9.10;;;8.10;;
8986;SDS011;4529;51.360;12.474;2023-06-10T11:00:29;8.63;;;7.80;;
8986;SDS011;4529;51.360;12.474;2023-06-10T11:10:39;10.67;;;8.80;;
8986;SDS011;4529;51.360;12.474;2023-06-10T11:15:46;9.23;;;8.37;;
8986;SDS011;4529;51.360;12.474;2023-06-10T11:26:08;8.70;;;7.80;;
8986;SDS011;4529;51.360;12.474;2023-06-10T11:31:20;10.27;;;8.43;;
8986;SDS011;4529;51.360;12.474;2023-06-10T11:36:29;9.00;;;8.20;;
8986;SDS011;4529;51.360;12.474;2023-06-10T11:41:32;8.50;;;7.70;;
8986;SDS011;4529;51.360;12.474;2023-06-10T11:46:36;8.70;;;7.80;;
8986;SDS011;4529;51.360;12.474;2023-06-10T11:51:40;8.27;;;7.40;;
8986;SDS011;4529;51.360;12.474;2023-06-10T11:56:44;9.27;;;7.40;;
8986;SDS011;4529;51.360;12.474;2023-06-10T12:01:48;8.13;;;7.43;;
8986;SDS011;4529;51.360;12.474;2023-06-10T12:06:53;8.37;;;7.37;;
8986;SDS011;4529;51.360;12.474;2023-06-10T12:12:00;7.40;;;6.80;;
8986;SDS011;4529;51.360;12.474;2023-06-10T12:17:05;7.70;;;6.90;;
8986;SDS011;4529;51.360;12.474;2023-06-10T12:22:09;7.30;;;6.60;;
8986;SDS011;4529;51.360;12.474;2023-06-10T12:27:12;7.10;;;6.50;;
8986;SDS011;4529;51.360;12.474;2023-06-10T12:32:16;6.70;;;6.17;;
8986;SDS011;4529;51.360;12.474;2023-06-10T12:37:19;6.50;;;6.00;;
8986;SDS011;4529;51.360;12.474;2023-06-10T12:42:23;10.87;;;7.23;;
8986;SDS011;4529;51.360;12.474;2023-06-10T12:47:30;16.57;;;7.77;;
8986;SDS011;4529;51.360;12.474;2023-06-10T12:52:33;9.13;;;7.07;;
8986;SDS011;4529;51.360;12.474;2023-06-10T12:57:37;8.23;;;7.07;;
8986;SDS011;4529;51.360;12.474;2023-06-10T13:02:41;8.13;;;7.20;;
8986;SDS011;4529;51.360;12.474;2023-06-10T13:07:44;8.20;;;7.40;;
8986;SDS011;4529;51.360;12.474;2023-06-10T13:12:48;9.13;;;7.17;;
8986;SDS011;4529;51.360;12.474;2023-06-10T13:17:51;7.20;;;6.50;;
8986;SDS011;4529;51.360;12.474;2023-06-10T13:22:55;6.80;;;6.20;;
8986;SDS011;4529;51.360;12.474;2023-06-10T13:27:58;6.63;;;5.57;;
8986;SDS011;4529;51.360;12.474;2023-06-10T13:33:01;5.73;;;5.13;;
8986;SDS011;4529;51.360;12.474;2023-06-10T13:38:05;5.90;;;5.30;;
8986;SDS011;4529;51.360;12.474;2023-06-10T13:43:08;5.63;;;5.07;;
8986;SDS011;4529;51.360;12.474;2023-06-10T13:48:12;5.20;;;4.70;;
8986;SDS011;4529;51.360;12.474;2023-06-10T13:53:16;4.70;;;4.30;;
8986;SDS011;4529;51.360;12.474;2023-06-10T13:58:19;3.97;;;3.67;;
8986;SDS011;4529;51.360;12.474;2023-06-10T14:03:23;3.70;;;3.40;;
8986;SDS011;4529;51.360;12.474;2023-06-10T14:08:26;4.03;;;3.67;;
8986;SDS011;4529;51.360;12.474;2023-06-10T14:13:30;3.63;;;3.20;;
8986;SDS011;4529;51.360;12.474;2023-06-10T14:18:33;4.53;;;3.37;;
8986;SDS011;4529;51.360;12.474;2023-06-10T14:23:37;3.70;;;3.40;;
8986;SDS011;4529;51.360;12.474;2023-06-10T14:28:40;3.80;;;3.50;;
8986;SDS011;4529;51.360;12.474;2023-06-10T14:33:45;3.57;;;3.27;;
8986;SDS011;4529;51.360;12.474;2023-06-10T14:38:48;3.50;;;3.20;;
8986;SDS011;4529;51.360;12.474;2023-06-10T14:43:52;3.53;;;3.23;;
8986;SDS011;4529;51.360;12.474;2023-06-10T14:48:55;4.57;;;3.33;;
8986;SDS011;4529;51.360;12.474;2023-06-10T14:53:59;6.50;;;4.73;;
8986;SDS011;4529;51.360;12.474;2023-06-10T14:59:02;5.43;;;4.57;;
8986;SDS011;4529;51.360;12.474;2023-06-10T15:04:06;4.90;;;4.40;;
8986;SDS011;4529;51.360;12.474;2023-06-10T15:09:09;5.30;;;4.90;;
8986;SDS011;4529;51.360;12.474;2023-06-10T15:14:13;6.07;;;5.20;;
8986;SDS011;4529;51.360;12.474;2023-06-10T15:19:16;5.93;;;5.30;;
8986;SDS011;4529;51.360;12.474;2023-06-10T15:24:19;5.43;;;4.93;;
8986;SDS011;4529;51.360;12.474;2023-06-10T15:29:23;5.53;;;5.03;;
8986;SDS011;4529;51.360;12.474;2023-06-10T15:34:26;6.10;;;5.60;;
8986;SDS011;4529;51.360;12.474;2023-06-10T15:39:30;5.97;;;5.40;;
8986;SDS011;4529;51.360;12.474;2023-06-10T15:44:33;7.47;;;6.40;;
8986;SDS011;4529;51.360;12.474;2023-06-10T15:49:37;6.97;;;6.30;;
8986;SDS011;4529;51.360;12.474;2023-06-10T15:54:40;7.40;;;6.70;;
8986;SDS011;4529;51.360;12.474;2023-06-10T15:59:44;7.47;;;6.73;;
8986;SDS011;4529;51.360;12.474;2023-06-10T16:04:47;7.57;;;6.87;;
8986;SDS011;4529;51.360;12.474;2023-06-10T16:09:51;7.43;;;6.73;;
8986;SDS011;4529;51.360;12.474;2023-06-10T16:14:54;8.10;;;7.30;;
8986;SDS011;4529;51.360;12.474;2023-06-10T16:19:58;8.23;;;7.27;;
8986;SDS011;4529;51.360;12.474;2023-06-10T16:25:01;7.63;;;6.93;;
8986;SDS011;4529;51.360;12.474;2023-06-10T16:30:05;7.27;;;6.67;;
8986;SDS011;4529;51.360;12.474;2023-06-10T16:35:08;7.60;;;6.80;;
8986;SDS011;4529;51.360;12.474;2023-06-10T16:40:12;7.03;;;6.40;;
8986;SDS011;4529;51.360;12.474;2023-06-10T16:45:15;16.97;;;11.83;;
8986;SDS011;4529;51.360;12.474;2023-06-10T16:50:19;11.37;;;8.30;;
8986;SDS011;4529;51.360;12.474;2023-06-10T16:55:22;8.37;;;7.27;;
8986;SDS011;4529;51.360;12.474;2023-06-10T17:00:27;8.57;;;7.77;;
8986;SDS011;4529;51.360;12.474;2023-06-10T17:05:30;9.00;;;8.10;;
8986;SDS011;4529;51.360;12.474;2023-06-10T17:10:38;8.40;;;7.50;;
8986;SDS011;4529;51.360;12.474;2023-06-10T17:15:42;24.53;;;18.37;;
8986;SDS011;4529;51.360;12.474;2023-06-10T17:20:45;7.87;;;6.80;;
8986;SDS011;4529;51.360;12.474;2023-06-10T17:25:49;8.87;;;6.67;;
8986;SDS011;4529;51.360;12.474;2023-06-10T17:30:52;7.67;;;6.90;;
8986;SDS011;4529;51.360;12.474;2023-06-10T17:35:56;7.90;;;7.13;;
8986;SDS011;4529;51.360;12.474;2023-06-10T17:40:59;7.93;;;7.17;;
8986;SDS011;4529;51.360;12.474;2023-06-10T17:46:04;10.23;;;7.60;;
8986;SDS011;4529;51.360;12.474;2023-06-10T17:51:07;7.30;;;6.60;;
8986;SDS011;4529;51.360;12.474;2023-06-10T17:56:10;7.73;;;6.93;;
8986;SDS011;4529;51.360;12.474;2023-06-10T18:01:14;12.33;;;6.67;;
8986;SDS011;4529;51.360;12.474;2023-06-10T18:06:17;7.93;;;6.87;;
8986;SDS011;4529;51.360;12.474;2023-06-10T18:11:21;7.90;;;7.20;;
8986;SDS011;4529;51.360;12.474;2023-06-10T18:16:24;8.47;;;6.80;;
8986;SDS011;4529;51.360;12.474;2023-06-10T18:21:28;7.80;;;7.10;;
8986;SDS011;4529;51.360;12.474;2023-06-10T18:26:31;7.97;;;7.10;;
8986;SDS011;4529;51.360;12.474;2023-06-10T18:31:35;10.50;;;6.70;;
8986;SDS011;4529;51.360;12.474;2023-06-10T18:36:38;7.30;;;6.60;;
8986;SDS011;4529;51.360;12.474;2023-06-10T18:41:42;7.10;;;6.40;;
8986;SDS011;4529;51.360;12.474;2023-06-10T18:46:45;7.10;;;6.40;;
8986;SDS011;4529;51.360;12.474;2023-06-10T18:51:49;7.20;;;6.60;;
8986;SDS011;4529;51.360;12.474;2023-06-10T18:56:52;7.70;;;6.57;;
8986;SDS011;4529;51.360;12.474;2023-06-10T19:01:56;9.07;;;6.50;;
8986;SDS011;4529;51.360;12.474;2023-06-10T19:06:59;6.60;;;6.10;;
8986;SDS011;4529;51.360;12.474;2023-06-10T19:12:03;7.43;;;6.63;;
8986;SDS011;4529;51.360;12.474;2023-06-10T19:17:07;6.30;;;5.70;;
8986;SDS011;4529;51.360;12.474;2023-06-10T19:22:10;6.23;;;5.73;;
8986;SDS011;4529;51.360;12.474;2023-06-10T19:27:13;7.20;;;6.50;;
8986;SDS011;4529;51.360;12.474;2023-06-10T19:32:17;7.00;;;5.90;;
8986;SDS011;4529;51.360;12.474;2023-06-10T19:37:20;7.17;;;6.20;;
8986;SDS011;4529;51.360;12.474;2023-06-10T19:42:24;9.10;;;8.30;;
8986;SDS011;4529;51.360;12.474;2023-06-10T19:47:27;6.57;;;5.97;;
8986;SDS011;4529;51.360;12.474;2023-06-10T19:52:31;7.00;;;6.37;;
8986;SDS011;4529;51.360;12.474;2023-06-10T19:57:35;9.03;;;6.67;;
8986;SDS011;4529;51.360;12.474;2023-06-10T20:02:38;7.33;;;6.50;;
8986;SDS011;4529;51.360;12.474;2023-06-10T20:07:42;6.90;;;6.30;;
8986;SDS011;4529;51.360;12.474;2023-06-10T20:12:44;7.20;;;6.60;;
8986;SDS011;4529;51.360;12.474;2023-06-10T20:17:48;7.27;;;6.57;;
8986;SDS011;4529;51.360;12.474;2023-06-10T20:22:51;7.37;;;6.70;;
8986;SDS011;4529;51.360;12.474;2023-06-10T20:27:55;9.07;;;7.13;;
8986;SDS011;4529;51.360;12.474;2023-06-10T20:32:58;8.50;;;7.60;;
8986;SDS011;4529;51.360;12.474;2023-06-10T20:38:02;9.23;;;6.97;;
8986;SDS011;4529;51.360;12.474;2023-06-10T20:43:05;8.50;;;7.70;;
8986;SDS011;4529;51.360;12.474;2023-06-10T20:48:09;9.10;;;7.67;;
8986;SDS011;4529;51.360;12.474;2023-06-10T20:53:12;8.87;;;7.67;;
8986;SDS011;4529;51.360;12.474;2023-06-10T20:58:16;9.07;;;8.20;;
8986;SDS011;4529;51.360;12.474;2023-06-10T21:03:19;8.40;;;7.60;;
8986;SDS011;4529;51.360;12.474;2023-06-10T21:08:22;8.43;;;6.73;;
8986;SDS011;4529;51.360;12.474;2023-06-10T21:13:26;8.20;;;7.30;;
8986;SDS011;4529;51.360;12.474;2023-06-10T21:18:29;8.23;;;7.43;;
8986;SDS011;4529;51.360;12.474;2023-06-10T21:23:33;8.13;;;7.33;;
8986;SDS011;4529;51.360;12.474;2023-06-10T21:28:36;8.20;;;7.40;;
8986;SDS011;4529;51.360;12.474;2023-06-10T21:33:40;8.03;;;7.10;;
8986;SDS011;4529;51.360;12.474;2023-06-10T21:38:43;8.87;;;7.53;;
8986;SDS011;4529;51.360;12.474;2023-06-10T21:43:47;8.57;;;7.27;;
8986;SDS011;4529;51.360;12.474;2023-06-10T21:48:50;8.30;;;7.27;;
8986;SDS011;4529;51.360;12.474;2023-06-10T21:53:54;7.57;;;6.93;;
8986;SDS011;4529;51.360;12.474;2023-06-10T21:58:57;7.67;;;6.97;;
8986;SDS011;4529;51.360;12.474;2023-06-10T22:04:01;12.60;;;7.23;;
8986;SDS011;4529;51.360;12.474;2023-06-10T22:09:04;9.13;;;7.00;;
8986;SDS011;4529;51.360;12.474;2023-06-10T22:14:08;7.80;;;6.60;;
8986;SDS011;4529;51.360;12.474;2023-06-10T22:19:11;6.93;;;6.27;;
8986;SDS011;4529;51.360;12.474;2023-06-10T22:24:14;6.37;;;5.83;;
8986;SDS011;4529;51.360;12.474;2023-06-10T22:29:18;8.30;;;6.10;;
8986;SDS011;4529;51.360;12.474;2023-06-10T22:34:21;6.80;;;5.90;;
8986;SDS011;4529;51.360;12.474;2023-06-10T22:39:25;6.57;;;5.97;;
8986;SDS011;4529;51.360;12.474;2023-06-10T22:44:28;7.87;;;6.13;;
8986;SDS011;4529;51.360;12.474;2023-06-10T22:49:32;7.30;;;6.60;;
8986;SDS011;4529;51.360;12.474;2023-06-10T22:54:36;6.90;;;6.20;;
8986;SDS011;4529;51.360;12.474;2023-06-10T22:59:39;7.23;;;6.13;;
8986;SDS011;4529;51.360;12.474;2023-06-10T23:04:42;7.87;;;6.40;;
8986;SDS011;4529;51.360;12.474;2023-06-10T23:09:46;7.47;;;6.33;;
8986;SDS011;4529;51.360;12.474;2023-06-10T23:14:49;7.30;;;6.60;;
8986;SDS011;4529;51.360;12.474;2023-06-10T23:19:53;8.77;;;6.80;;
8986;SDS011;4529;51.360;12.474;2023-06-10T23:24:57;8.73;;;6.50;;
8986;SDS011;4529;51.360;12.474;2023-06-10T23:29:59;7.27;;;6.57;;
8986;SDS011;4529;51.360;12.474;2023-06-10T23:35:03;8.27;;;6.17;;
8986;SDS011;4529;51.360;12.474;2023-06-10T23:40:07;7.37;;;6.63;;
8986;SDS011;4529;51.360;12.474;2023-06-10T23:45:10;7.17;;;6.47;;
8986;SDS011;4529;51.360;12.474;2023-06-10T23:50:14;7.33;;;6.60;;
8986;SDS011;4529;51.360;12.474;2023-06-10T23:55:17;8.97;;;6.67;;
